Time;durP1;ratioP1;P1;durP2;ratioP2;P2;SDS_P1;SDS_P2;PMS_P1;PMS_P2;Temp;Humidity;BMP_temperature;BMP_pressure;BME280_temperature;BME280_humidity;BME280_pressure;Samples;Min_cycle;Max_cycle;Signal;HPM_P1;HPM_P2
2022/11/08 00:01:39;;;;;;;3.23;2.10;;;3.90;99.90;4.70;97148.00;;;;5088104;28;20425;-70
2022/11/08 00:04:28;;;;;;;7.83;2.53;;;3.90;99.90;4.90;97139.00;;;;5086750;28;21050;-69
2022/11/08 00:16:37;;;;;;;5.13;3.00;;;4.10;99.90;4.70;97152.00;;;;5087082;28;20894;-70
2022/11/08 00:19:26;;;;;;;2.60;2.10;;;4.00;99.90;4.40;97140.00;;;;5084421;28;20473;-70
2022/11/08 00:22:15;;;;;;;2.27;1.70;;;3.90;99.90;4.20;97136.00;;;;5074348;28;20503;-70
2022/11/08 00:25:05;;;;;;;2.40;2.20;;;3.80;99.90;4.20;97141.00;;;;5072405;28;20462;-70
2022/11/08 00:27:54;;;;;;;2.13;2.03;;;3.70;99.90;4.30;97134.00;;;;5082690;28;20560;-71
2022/11/08 00:30:44;;;;;;;2.10;1.90;;;3.70;99.90;4.60;97146.00;;;;5085447;28;20782;-70
2022/11/08 00:33:32;;;;;;;3.07;2.10;;;3.70;99.90;4.70;97145.00;;;;5074438;28;20915;-71
2022/11/08 00:36:21;;;;;;;2.43;1.90;;;3.80;99.90;4.60;97143.00;;;;5082962;28;20429;-68
2022/11/08 00:39:10;;;;;;;2.60;2.40;;;3.70;99.90;4.60;97130.00;;;;5083881;28;20470;-69
2022/11/08 00:41:59;;;;;;;3.17;2.67;;;3.80;99.90;4.50;97132.00;;;;5078260;28;20442;-71
2022/11/08 00:44:47;;;;;;;2.07;1.97;;;3.70;99.90;4.20;97136.00;;;;5070546;28;20407;-70
2022/11/08 00:47:37;;;;;;;1.80;1.70;;;3.70;99.90;3.90;97137.00;;;;5091916;28;20433;-71
2022/11/08 00:50:26;;;;;;;1.67;1.57;;;3.50;99.90;3.80;97141.00;;;;5085248;28;20430;-70
2022/11/08 00:53:15;;;;;;;1.87;1.77;;;3.30;99.90;4.00;97140.00;;;;5080761;28;20937;-70
2022/11/08 00:56:06;;;;;;;2.67;2.47;;;3.40;99.90;4.30;97143.00;;;;5081146;28;20421;-70
2022/11/08 00:58:54;;;;;;;3.63;2.20;;;3.40;99.90;4.50;97142.00;;;;5083914;28;20535;-70
2022/11/08 01:01:43;;;;;;;1.70;1.57;;;3.50;99.90;4.50;97139.00;;;;5070736;28;20502;-71
2022/11/08 01:04:33;;;;;;;1.73;1.63;;;3.60;99.90;4.20;97141.00;;;;5071090;28;20414;-70
2022/11/08 01:07:22;;;;;;;1.67;1.50;;;3.60;99.90;4.10;97144.00;;;;5077601;28;20878;-70
2022/11/08 01:10:11;;;;;;;3.10;2.00;;;3.50;99.90;3.90;97130.00;;;;5082084;28;20462;-70
2022/11/08 01:12:59;;;;;;;3.17;1.80;;;3.50;99.90;3.80;97127.00;;;;5082375;28;20460;-70
2022/11/08 01:15:48;;;;;;;3.17;1.87;;;3.40;99.90;3.60;97122.00;;;;5083516;28;20824;-70
2022/11/08 01:18:37;;;;;;;2.63;2.03;;;3.30;99.90;3.90;97120.00;;;;5085630;28;20461;-70
2022/11/08 01:21:28;;;;;;;1.93;1.73;;;3.20;99.90;3.80;97130.00;;;;5072815;28;20500;-70
2022/11/08 01:24:17;;;;;;;2.10;1.87;;;3.20;99.90;4.00;97125.00;;;;5070491;28;20422;-70
2022/11/08 01:27:06;;;;;;;1.40;1.20;;;3.20;99.90;4.00;97126.00;;;;5086573;28;20472;-70
2022/11/08 01:29:55;;;;;;;1.57;1.47;;;3.20;99.90;4.00;97124.00;;;;5084012;28;20506;-70
2022/11/08 01:32:43;;;;;;;2.40;2.20;;;3.20;99.90;3.90;97116.00;;;;5075401;28;20434;-70
2022/11/08 01:35:33;;;;;;;2.27;1.93;;;3.20;99.90;4.20;97124.00;;;;5080536;28;20510;-69
2022/11/08 01:38:23;;;;;;;2.90;2.00;;;3.30;99.90;4.30;97109.00;;;;5088041;28;20446;-70
2022/11/08 01:41:13;;;;;;;4.23;2.40;;;3.40;99.90;4.70;97107.00;;;;5077945;28;20422;-70
2022/11/08 01:44:02;;;;;;;2.13;1.90;;;3.50;99.90;4.30;97098.00;;;;5090396;28;20425;-69
2022/11/08 01:46:51;;;;;;;5.93;2.47;;;3.60;99.90;3.60;97089.00;;;;5078905;28;20422;-69
2022/11/08 01:49:46;;;;;;;0.90;0.90;;;3.40;99.90;3.50;97094.00;;;;5069955;28;20492;-70
2022/11/08 01:52:37;;;;;;;1.77;1.67;;;3.20;99.90;3.40;97101.00;;;;5078414;28;20417;-70
2022/11/08 01:55:35;;;;;;;1.43;1.33;;;3.10;99.90;3.30;97087.00;;;;5089591;28;20450;-69
2022/11/08 01:58:28;;;;;;;1.87;1.73;;;3.00;99.90;3.30;97095.00;;;;5087772;28;20461;-69
2022/11/08 02:01:16;;;;;;;1.93;1.83;;;3.00;99.90;3.50;97089.00;;;;5088933;28;20428;-70
2022/11/08 02:04:06;;;;;;;2.87;2.00;;;2.90;99.90;3.80;97090.00;;;;5090160;28;20418;-69
2022/11/08 02:06:56;;;;;;;2.23;2.03;;;3.00;99.90;3.70;97077.00;;;;5089859;28;20421;-69
2022/11/08 02:09:47;;;;;;;2.67;1.83;;;3.10;99.90;3.90;97075.00;;;;5088711;28;20808;-69
2022/11/08 02:12:37;;;;;;;5.47;1.80;;;3.10;99.90;3.50;97064.00;;;;5090246;28;20840;-69
2022/11/08 02:15:26;;;;;;;4.57;2.10;;;3.00;99.90;3.40;97076.00;;;;5089041;28;20503;-69
2022/11/08 02:18:16;;;;;;;3.80;2.40;;;3.10;99.90;3.60;97073.00;;;;5084933;28;20446;-69
2022/11/08 02:21:12;;;;;;;2.83;2.27;;;3.00;99.90;3.70;97074.00;;;;5076111;28;20430;-69
2022/11/08 02:24:07;;;;;;;1.93;1.83;;;3.00;99.90;3.90;97074.00;;;;5075805;28;20434;-69
2022/11/08 02:26:57;;;;;;;3.33;2.27;;;3.00;99.90;3.90;97073.00;;;;5082447;28;20441;-69
2022/11/08 02:29:46;;;;;;;2.27;2.00;;;3.00;99.90;3.80;97062.00;;;;5080276;28;21034;-69
2022/11/08 02:32:39;;;;;;;3.63;2.60;;;3.10;99.90;4.30;97066.00;;;;5089371;28;20457;-69
2022/11/08 02:35:28;;;;;;;3.97;2.37;;;3.20;99.90;4.00;97052.00;;;;5077411;28;20455;-70
2022/11/08 02:38:17;;;;;;;2.77;2.10;;;3.20;99.90;3.50;97055.00;;;;5077821;28;20465;-69
2022/11/08 02:41:08;;;;;;;2.87;1.73;;;3.10;99.90;3.20;97046.00;;;;5084381;28;20429;-70
2022/11/08 02:43:57;;;;;;;3.67;2.90;;;3.00;99.90;3.30;97046.00;;;;5086574;28;20422;-69
2022/11/08 02:46:46;;;;;;;2.00;1.53;;;2.80;99.90;3.10;97044.00;;;;5069283;28;20427;-69
2022/11/08 02:49:35;;;;;;;1.53;1.27;;;2.70;99.90;3.30;97049.00;;;;5068974;28;20983;-69
2022/11/08 02:52:24;;;;;;;2.70;1.90;;;2.70;99.90;3.40;97054.00;;;;5071891;28;20426;-70
2022/11/08 02:55:12;;;;;;;2.67;2.13;;;2.80;99.90;3.30;97048.00;;;;5074590;28;20434;-69
2022/11/08 02:58:03;;;;;;;2.00;1.80;;;2.70;99.90;3.30;97037.00;;;;5088697;28;20531;-69
2022/11/08 03:00:52;;;;;;;5.27;2.00;;;2.70;99.90;3.50;97041.00;;;;5078077;28;20943;-70
2022/11/08 03:03:41;;;;;;;3.43;2.67;;;2.70;99.90;3.50;97044.00;;;;5089124;28;20426;-69
2022/11/08 03:06:29;;;;;;;3.80;1.90;;;2.90;99.90;3.50;97042.00;;;;5077962;28;20832;-69
2022/11/08 03:09:18;;;;;;;2.53;1.70;;;2.90;99.90;3.30;97046.00;;;;5074335;28;20497;-70
2022/11/08 03:12:07;;;;;;;3.10;2.17;;;2.90;99.90;3.50;97046.00;;;;5084402;28;20414;-69
2022/11/08 03:14:57;;;;;;;1.80;1.70;;;2.90;99.90;3.30;97049.00;;;;5073410;28;20427;-69
2022/11/08 03:17:46;;;;;;;3.33;2.37;;;2.80;99.90;3.30;97035.00;;;;5088458;28;20475;-69
2022/11/08 03:20:34;;;;;;;7.57;2.43;;;2.80;99.90;3.10;97035.00;;;;5079418;28;20470;-69
2022/11/08 03:23:23;;;;;;;2.10;1.90;;;2.70;99.90;3.40;97039.00;;;;5082147;28;21085;-69
2022/11/08 03:26:12;;;;;;;3.10;2.23;;;2.70;99.90;3.30;97039.00;;;;5076091;28;20484;-70
2022/11/08 03:29:00;;;;;;;5.30;2.95;;;2.90;99.90;3.40;97031.00;;;;5079331;28;20439;-70
2022/11/08 03:31:51;;;;;;;4.63;2.43;;;2.80;99.90;3.70;97035.00;;;;5078567;28;20287;-69
2022/11/08 03:34:39;;;;;;;8.83;3.63;;;2.90;99.90;3.60;97038.00;;;;5080783;28;20492;-69
2022/11/08 03:37:28;;;;;;;3.13;2.60;;;3.00;99.90;3.60;97032.00;;;;5076589;28;20419;-69
2022/11/08 03:40:17;;;;;;;3.43;2.80;;;3.00;99.90;4.00;97031.00;;;;5075525;28;20549;-69
2022/11/08 03:43:06;;;;;;;5.00;3.77;;;3.10;99.90;4.00;97040.00;;;;5085750;28;20507;-69
2022/11/08 03:45:54;;;;;;;4.90;4.07;;;3.20;99.90;3.90;97040.00;;;;5088588;28;20845;-70
2022/11/08 03:48:44;;;;;;;1.43;1.33;;;3.20;99.90;3.00;97031.00;;;;5086340;28;20477;-69
2022/11/08 03:51:33;;;;;;;2.10;1.90;;;3.10;99.90;3.20;97033.00;;;;5068937;28;20438;-69
2022/11/08 03:54:22;;;;;;;3.57;2.83;;;2.90;99.90;3.00;97035.00;;;;5072782;28;20426;-69
2022/11/08 03:57:12;;;;;;;3.43;2.43;;;2.80;99.90;2.70;97022.00;;;;5089933;28;20466;-69
2022/11/08 04:00:01;;;;;;;1.60;1.40;;;2.50;99.90;2.90;97033.00;;;;5076378;28;20472;-68
2022/11/08 04:02:50;;;;;;;3.07;2.40;;;2.50;99.90;2.80;97026.00;;;;5071532;28;20437;-69
2022/11/08 04:05:40;;;;;;;2.63;1.97;;;2.50;99.90;3.10;97026.00;;;;5075810;28;20430;-69
2022/11/08 04:08:29;;;;;;;2.53;2.33;;;2.60;99.90;3.30;97030.00;;;;5077778;28;20508;-70
2022/11/08 04:23:40;;;;;;;2.60;1.80;;;2.80;99.90;3.20;97017.00;;;;5075652;28;20494;-70
2022/11/08 04:26:29;;;;;;;2.90;2.50;;;2.70;99.90;3.60;97022.00;;;;5081977;28;20850;-70
2022/11/08 04:29:17;;;;;;;3.27;2.63;;;2.80;99.90;3.70;97018.00;;;;5083748;28;20975;-69
2022/11/08 04:32:06;;;;;;;2.07;1.93;;;2.90;99.90;3.70;97030.00;;;;5090478;28;20991;-68
2022/11/08 04:34:55;;;;;;;2.60;2.17;;;3.00;99.90;3.00;97018.00;;;;5082849;28;20511;-69
2022/11/08 04:37:44;;;;;;;1.80;1.70;;;2.90;99.90;2.70;97020.00;;;;5076370;28;20441;-69
2022/11/08 04:40:34;;;;;;;2.57;2.37;;;2.70;99.90;3.20;97014.00;;;;5079356;28;20488;-69
2022/11/08 04:43:23;;;;;;;3.90;1.90;;;2.60;99.90;3.00;97015.00;;;;5088711;28;20429;-69
2022/11/08 04:46:14;;;;;;;2.90;1.80;;;2.50;99.90;2.90;97015.00;;;;5078406;28;21033;-70
2022/11/08 04:49:02;;;;;;;2.23;1.83;;;2.50;99.90;3.40;97022.00;;;;5091129;28;20461;-69
2022/11/08 04:51:51;;;;;;;8.20;2.67;;;2.50;99.90;3.90;97014.00;;;;5079550;28;20430;-68
2022/11/08 04:54:43;;;;;;;4.20;3.10;;;2.60;99.90;4.00;97011.00;;;;5073797;28;20416;-68
2022/11/08 04:57:33;;;;;;;3.73;2.50;;;2.80;99.90;4.00;97015.00;;;;5090396;28;20413;-69
2022/11/08 05:00:22;;;;;;;4.80;2.87;;;2.90;99.90;3.90;97006.00;;;;5072953;28;20484;-69
2022/11/08 05:03:10;;;;;;;6.77;2.47;;;3.00;99.90;3.60;96993.00;;;;5072166;28;20437;-70
2022/11/08 05:06:01;;;;;;;3.17;2.77;;;3.00;99.90;3.40;97004.00;;;;5069660;28;20774;-69
2022/11/08 05:08:50;;;;;;;4.90;4.33;;;2.80;99.90;2.90;96999.00;;;;5075010;28;20449;-69
2022/11/08 05:11:39;;;;;;;2.90;2.50;;;2.60;99.90;3.30;97004.00;;;;5082928;28;20461;-69
2022/11/08 05:14:29;;;;;;;3.60;3.07;;;2.60;99.90;3.40;97005.00;;;;5080538;28;20434;-69
2022/11/08 05:17:18;;;;;;;5.50;2.90;;;2.60;99.90;3.70;97006.00;;;;5086693;28;20512;-69
2022/11/08 05:23:25;;;;;;;2.80;2.53;;;2.50;99.90;2.50;97003.00;;;;5073532;28;20513;-69
2022/11/08 05:26:15;;;;;;;14.70;9.03;;;2.30;99.90;3.00;97005.00;;;;5086922;28;20469;-69
2022/11/08 05:29:04;;;;;;;10.63;7.93;;;2.30;99.90;3.00;96993.00;;;;5081051;28;20557;-69
2022/11/08 05:31:54;;;;;;;6.93;4.77;;;2.40;99.90;3.10;97003.00;;;;5085113;28;20469;-69
2022/11/08 05:34:43;;;;;;;6.60;4.37;;;2.40;99.90;3.20;97000.00;;;;5074620;28;20504;-69
2022/11/08 05:37:31;;;;;;;8.43;4.67;;;2.40;99.90;3.50;97009.00;;;;5084059;28;20434;-69
2022/11/08 05:40:20;;;;;;;2.37;1.97;;;2.50;99.90;3.10;97000.00;;;;5082536;28;20547;-68
2022/11/08 05:43:09;;;;;;;3.90;3.57;;;2.50;99.90;3.30;97007.00;;;;5087842;28;20491;-69
2022/11/08 05:45:58;;;;;;;6.93;3.57;;;2.60;99.90;3.50;97008.00;;;;5087519;28;20417;-69
2022/11/08 05:48:48;;;;;;;10.47;4.23;;;2.60;99.90;3.80;97016.00;;;;5070673;28;20529;-69
2022/11/08 05:51:37;;;;;;;4.77;3.67;;;2.70;99.90;3.90;97006.00;;;;5073985;28;20437;-69
2022/11/08 05:54:26;;;;;;;5.93;3.37;;;2.80;99.90;4.10;97004.00;;;;5074200;28;20492;-69
2022/11/08 05:57:14;;;;;;;3.43;2.90;;;3.00;99.90;4.00;97006.00;;;;5081610;28;20445;-69
2022/11/08 06:00:07;;;;;;;4.93;2.73;;;3.00;99.90;4.10;97008.00;;;;5086134;28;20449;-70
2022/11/08 06:02:55;;;;;;;3.97;3.27;;;3.10;99.90;4.10;97001.00;;;;5083869;28;20437;-69
2022/11/08 06:05:45;;;;;;;2.47;1.93;;;3.10;99.90;3.20;96988.00;;;;5088374;28;20422;-69
2022/11/08 06:08:35;;;;;;;3.23;2.53;;;2.90;99.90;3.40;96997.00;;;;5073247;28;20521;-69
2022/11/08 06:11:26;;;;;;;2.90;1.83;;;2.70;99.90;2.90;97005.00;;;;5084927;28;20465;-69
2022/11/08 06:14:15;;;;;;;2.87;2.67;;;2.50;99.90;3.20;96989.00;;;;5077399;28;20468;-69
2022/11/08 06:17:03;;;;;;;2.10;1.90;;;1.20;99.90;3.40;96999.00;;;;5084164;28;20515;-69
2022/11/08 06:19:52;;;;;;;2.27;1.87;;;2.50;99.90;3.60;96993.00;;;;5087122;28;20444;-70
2022/11/08 06:22:43;;;;;;;2.33;2.07;;;2.60;99.90;3.80;97000.00;;;;5082409;28;20454;-69
2022/11/08 06:25:31;;;;;;;2.37;2.03;;;2.70;99.90;3.60;96997.00;;;;5069007;28;20423;-69
2022/11/08 06:28:21;;;;;;;2.03;1.83;;;2.80;99.90;3.30;97010.00;;;;5078804;28;20481;-69
2022/11/08 06:31:09;;;;;;;4.57;3.33;;;2.70;99.90;3.30;97002.00;;;;5079540;28;20978;-70
2022/11/08 06:33:58;;;;;;;1.87;1.77;;;2.70;99.90;3.00;96999.00;;;;5077573;28;21012;-69
2022/11/08 06:36:47;;;;;;;1.43;1.23;;;2.50;99.90;2.90;97007.00;;;;5085232;28;20766;-68
2022/11/08 06:39:37;;;;;;;7.23;3.03;;;2.40;99.90;2.90;97007.00;;;;5084863;28;20799;-69
2022/11/08 06:42:26;;;;;;;2.07;1.80;;;2.40;99.90;3.40;97009.00;;;;5081945;28;20497;-70
2022/11/08 06:45:15;;;;;;;4.93;3.17;;;2.60;99.90;3.50;96996.00;;;;5074426;28;20445;-69
2022/11/08 06:48:06;;;;;;;2.80;2.23;;;2.70;99.90;3.60;97005.00;;;;5087958;28;20976;-68
2022/11/08 06:50:55;;;;;;;1.60;1.00;;;2.70;99.90;2.80;96990.00;;;;5086189;28;20539;-68
2022/11/08 06:53:44;;;;;;;3.53;1.37;;;2.70;99.90;3.10;97009.00;;;;5080007;28;20421;-69
2022/11/08 06:56:34;;;;;;;2.53;2.30;;;2.70;99.90;3.50;97010.00;;;;5084430;28;20442;-69
2022/11/08 06:59:23;;;;;;;3.30;2.03;;;2.70;99.90;3.90;97014.00;;;;5084920;28;20445;-69
2022/11/08 07:02:12;;;;;;;2.40;2.20;;;2.90;99.90;3.80;97012.00;;;;5086131;28;20546;-69
2022/11/08 07:05:00;;;;;;;2.53;2.10;;;3.00;99.90;3.60;97010.00;;;;5080795;28;20430;-68
2022/11/08 07:07:50;;;;;;;6.33;3.00;;;3.00;99.90;3.60;97022.00;;;;5068703;28;21004;-69
2022/11/08 07:10:40;;;;;;;5.93;3.13;;;3.00;99.90;3.60;97015.00;;;;5083455;28;20520;-70
2022/11/08 07:13:30;;;;;;;4.83;3.30;;;3.00;99.90;3.50;97013.00;;;;5078995;28;20430;-69
2022/11/08 07:16:18;;;;;;;5.53;3.13;;;3.00;99.90;3.60;97010.00;;;;5077469;28;20446;-70
2022/11/08 07:19:07;;;;;;;7.90;3.57;;;3.00;99.90;3.70;97020.00;;;;5081224;28;20457;-69
2022/11/08 07:21:56;;;;;;;3.83;3.10;;;3.10;99.90;4.00;97004.00;;;;5084824;28;20562;-68
2022/11/08 07:24:44;;;;;;;6.30;4.17;;;3.10;99.90;4.10;97005.00;;;;5082382;28;20418;-69
2022/11/08 07:27:33;;;;;;;6.10;3.23;;;3.20;99.90;4.30;97005.00;;;;5069164;28;21000;-68
2022/11/08 07:30:24;;;;;;;4.10;2.83;;;3.40;99.90;4.10;97001.00;;;;5086630;28;20418;-69
2022/11/08 07:33:13;;;;;;;4.53;3.00;;;3.40;99.90;4.20;97007.00;;;;5072895;28;20573;-69
2022/11/08 07:36:03;;;;;;;4.20;2.67;;;3.40;99.90;4.50;97018.00;;;;5076716;28;20422;-69
2022/11/08 07:38:52;;;;;;;4.60;3.03;;;3.50;99.90;4.60;96999.00;;;;5082184;28;20519;-68
2022/11/08 07:41:41;;;;;;;4.30;3.90;;;3.60;99.90;4.60;97005.00;;;;5085748;28;20980;-70
2022/11/08 07:44:30;;;;;;;7.10;4.40;;;3.70;99.90;5.00;97000.00;;;;5092667;28;20421;-69
2022/11/08 07:47:20;;;;;;;7.53;4.43;;;3.90;99.90;5.30;96991.00;;;;5093124;28;20510;-69
2022/11/08 07:50:10;;;;;;;6.90;4.93;;;4.10;99.90;5.50;96984.00;;;;5091919;28;20426;-69
2022/11/08 07:53:00;;;;;;;3.43;2.90;;;4.20;99.90;5.30;96980.00;;;;5093097;28;20422;-68
2022/11/08 07:55:48;;;;;;;6.30;4.63;;;4.40;99.90;5.30;96973.00;;;;5082447;28;20434;-68
2022/11/08 07:58:37;;;;;;;7.00;4.73;;;4.50;99.90;5.40;96985.00;;;;5081698;28;20458;-69
2022/11/08 08:01:26;;;;;;;5.90;4.23;;;4.50;99.90;5.20;96976.00;;;;5088740;28;20480;-68
2022/11/08 08:04:16;;;;;;;8.27;4.17;;;4.50;99.90;5.90;96979.00;;;;5080779;28;20419;-68
2022/11/08 08:07:05;;;;;;;4.73;3.33;;;4.60;99.90;6.00;96986.00;;;;5081779;28;20508;-69
2022/11/08 08:09:54;;;;;;;8.53;4.83;;;4.80;99.90;6.10;96991.00;;;;5091939;28;20540;-69
2022/11/08 08:12:43;;;;;;;4.87;4.27;;;4.90;99.90;6.10;96988.00;;;;5075921;28;20519;-69
2022/11/08 08:15:32;;;;;;;6.60;4.77;;;5.00;99.90;6.40;96984.00;;;;5076590;28;20282;-69
2022/11/08 08:18:20;;;;;;;6.17;4.87;;;5.20;99.90;6.80;96985.00;;;;5084375;28;20228;-69
2022/11/08 08:21:11;;;;;;;6.27;4.60;;;5.40;99.90;7.00;96985.00;;;;5082207;28;20608;-69
2022/11/08 08:23:59;;;;;;;6.00;4.37;;;5.60;99.90;6.80;96989.00;;;;5085596;28;20921;-69
2022/11/08 08:26:48;;;;;;;7.73;5.27;;;5.70;99.90;7.20;96989.00;;;;5084027;28;20198;-69
2022/11/08 08:29:37;;;;;;;9.80;5.20;;;5.90;99.90;7.50;96990.00;;;;5089323;28;20258;-69
2022/11/08 08:32:25;;;;;;;9.43;5.37;;;6.00;99.90;7.70;96983.00;;;;5085796;28;20211;-69
2022/11/08 08:35:17;;;;;;;8.73;4.90;;;7.20;99.90;8.10;96979.00;;;;5089598;28;20207;-69
2022/11/08 08:38:07;;;;;;;9.83;4.77;;;6.40;99.90;8.30;96991.00;;;;5082914;28;20215;-69
2022/11/08 08:40:56;;;;;;;5.77;4.20;;;6.70;99.90;8.70;96989.00;;;;5083458;28;20210;-68
2022/11/08 08:43:45;;;;;;;7.10;5.03;;;6.90;99.90;9.10;96981.00;;;;5088785;28;20203;-69
2022/11/08 08:46:34;;;;;;;8.80;4.97;;;7.20;99.90;9.40;96985.00;;;;5081411;28;20196;-69
2022/11/08 08:49:22;;;;;;;5.97;3.50;;;7.50;99.90;9.30;96982.00;;;;5084769;28;20251;-69
2022/11/08 08:52:11;;;;;;;8.97;5.23;;;7.70;99.90;9.90;96987.00;;;;5086353;28;20199;-68
2022/11/08 08:55:01;;;;;;;7.23;3.77;;;8.00;99.90;10.40;96985.00;;;;5084805;28;20195;-69
2022/11/08 08:57:50;;;;;;;8.17;4.57;;;8.30;99.90;10.80;96997.00;;;;5078012;28;20249;-69
2022/11/08 09:00:38;;;;;;;5.33;4.27;;;8.60;99.90;11.20;96990.00;;;;5082040;28;20241;-69
2022/11/08 09:03:47;;;;;;;5.90;4.33;;;9.00;99.90;11.30;96988.00;;;;5078572;28;20892;-68
2022/11/08 09:06:36;;;;;;;5.77;3.97;;;9.30;99.90;11.30;96984.00;;;;5080964;28;20199;-69
2022/11/08 09:09:24;;;;;;;5.67;4.30;;;9.50;99.90;11.60;96992.00;;;;5081034;28;20232;-69
2022/11/08 09:12:14;;;;;;;4.00;3.40;;;9.80;99.90;12.00;96993.00;;;;5085465;28;20619;-70
2022/11/08 09:15:05;;;;;;;6.57;4.17;;;10.00;99.90;12.10;96993.00;;;;5085027;28;20196;-70
2022/11/08 09:17:54;;;;;;;5.77;3.17;;;10.20;99.90;12.20;97001.00;;;;5083885;28;20204;-69
2022/11/08 09:20:43;;;;;;;4.50;3.70;;;10.40;99.90;12.20;97004.00;;;;5083239;28;20572;-69
2022/11/08 09:23:32;;;;;;;4.27;3.67;;;10.50;99.90;12.70;96990.00;;;;5083473;28;20254;-69
2022/11/08 09:26:21;;;;;;;7.77;3.87;;;10.70;99.90;12.80;96999.00;;;;5071200;28;20720;-69
2022/11/08 09:29:11;;;;;;;5.53;3.53;;;10.80;99.90;13.00;96992.00;;;;5089344;28;20231;-69
2022/11/08 09:32:01;;;;;;;6.50;3.30;;;11.00;99.90;13.20;96985.00;;;;5080198;28;20196;-69
2022/11/08 09:34:49;;;;;;;4.70;3.23;;;11.20;99.90;13.10;96988.00;;;;5085437;28;20206;-70
2022/11/08 09:37:38;;;;;;;4.50;3.27;;;11.30;99.90;13.20;96977.00;;;;5086714;28;20199;-69
2022/11/08 09:40:37;;;;;;;4.47;3.27;;;11.40;99.90;13.40;96984.00;;;;5073102;28;20242;-69
2022/11/08 09:43:52;;;;;;;4.10;3.50;;;11.50;99.90;13.70;96981.00;;;;5069811;28;20259;-69
2022/11/08 09:46:49;;;;;;;5.80;4.13;;;11.70;99.90;13.90;96979.00;;;;5078111;28;20244;-70
2022/11/08 09:49:44;;;;;;;3.77;3.20;;;11.90;99.90;13.80;96974.00;;;;5085352;28;20837;-69
2022/11/08 09:52:35;;;;;;;5.87;4.33;;;12.10;99.90;13.90;96968.00;;;;5083415;28;20275;-69
2022/11/08 09:55:30;;;;;;;4.97;3.03;;;12.10;99.90;14.20;96970.00;;;;5076699;28;20286;-69
2022/11/08 09:58:30;;;;;;;4.70;3.53;;;12.20;99.90;14.20;96964.00;;;;5074176;28;20223;-69
2022/11/08 10:01:19;;;;;;;4.30;3.03;;;12.30;99.90;14.40;96968.00;;;;5084089;28;20229;-68
2022/11/08 10:04:15;;;;;;;6.10;2.77;;;12.50;99.90;14.80;96964.00;;;;5082212;28;20228;-69
2022/11/08 10:07:19;;;;;;;5.33;3.80;;;12.70;99.90;14.70;96967.00;;;;5077161;28;20249;-68
2022/11/08 10:10:37;;;;;;;4.73;3.80;;;12.80;99.90;15.20;96959.00;;;;5082224;28;20225;-68
2022/11/08 10:13:35;;;;;;;4.07;3.30;;;13.10;99.90;15.90;96957.00;;;;5079358;28;20280;-69
2022/11/08 10:16:38;;;;;;;4.47;3.47;;;13.90;99.90;16.20;96956.00;;;;5083963;28;20413;-69
2022/11/08 10:19:57;;;;;;;5.75;3.78;;;15.00;99.90;16.70;96962.00;;;;5084088;28;20386;-68
2022/11/08 10:22:56;;;;;;;5.17;3.10;;;15.80;99.90;17.40;96946.00;;;;5077745;28;20226;-69
2022/11/08 10:25:50;;;;;;;4.83;3.70;;;16.50;99.90;17.20;96939.00;;;;5079088;28;20767;-69
2022/11/08 10:28:48;;;;;;;4.50;3.10;;;17.00;99.80;17.10;96942.00;;;;5076491;28;20312;-69
2022/11/08 10:31:40;;;;;;;3.90;3.20;;;17.20;97.40;16.90;96931.00;;;;5080999;28;20195;-69
2022/11/08 10:34:36;;;;;;;5.73;2.93;;;17.00;95.70;17.90;96931.00;;;;5084347;28;20216;-69
2022/11/08 10:37:26;;;;;;;3.30;2.53;;;17.20;96.90;18.20;96936.00;;;;5088044;28;20199;-69
2022/11/08 10:40:24;;;;;;;2.87;2.30;;;17.60;95.00;17.60;96934.00;;;;5077513;28;20340;-69
2022/11/08 10:43:20;;;;;;;4.83;3.07;;;17.70;93.20;17.70;96922.00;;;;5081252;28;20211;-69
2022/11/08 10:46:37;;;;;;;3.07;2.43;;;17.50;93.40;18.10;96926.00;;;;5077833;28;20221;-69
2022/11/08 10:49:28;;;;;;;3.57;2.90;;;17.60;93.70;18.30;96918.00;;;;5082249;28;20714;-69
2022/11/08 10:52:31;;;;;;;2.07;1.87;;;17.80;92.90;17.80;96916.00;;;;5069816;28;20328;-71
2022/11/08 10:55:27;;;;;;;3.73;2.50;;;17.80;91.30;18.10;96920.00;;;;5070676;28;20196;-69
2022/11/08 10:58:31;;;;;;;2.83;2.57;;;17.60;91.60;18.20;96923.00;;;;5068770;28;20239;-69
2022/11/08 11:01:22;;;;;;;3.80;2.50;;;17.70;91.60;18.40;96912.00;;;;5076845;28;20280;-69
2022/11/08 11:04:27;;;;;;;4.37;2.60;;;17.90;91.60;18.90;96915.00;;;;5075990;28;20227;-69
2022/11/08 11:07:32;;;;;;;3.07;2.47;;;17.70;91.70;18.50;96918.00;;;;5077975;28;20200;-69
2022/11/08 11:10:27;;;;;;;3.23;2.63;;;17.70;91.40;18.60;96907.00;;;;5078224;28;20240;-70
2022/11/08 11:13:22;;;;;;;2.63;2.17;;;17.70;91.00;19.20;96917.00;;;;5086119;28;20218;-70
2022/11/08 11:16:14;;;;;;;3.10;2.30;;;17.90;90.90;18.80;96907.00;;;;5081700;28;20198;-70
2022/11/08 11:19:06;;;;;;;3.03;2.33;;;17.90;90.20;19.40;96913.00;;;;5084495;28;20212;-69
2022/11/08 11:22:02;;;;;;;3.90;2.50;;;17.90;90.80;19.70;96899.00;;;;5083102;28;20206;-69
2022/11/08 11:24:53;;;;;;;3.03;2.70;;;18.30;88.90;20.80;96905.00;;;;5082454;28;20272;-69
2022/11/08 11:27:43;;;;;;;3.43;2.43;;;18.60;90.10;20.40;96899.00;;;;5073302;28;20827;-69
2022/11/08 11:30:34;;;;;;;3.33;2.70;;;18.80;87.50;19.50;96895.00;;;;5070546;28;20691;-69
2022/11/08 11:33:26;;;;;;;2.47;2.27;;;18.80;85.00;20.10;96898.00;;;;5069745;28;20210;-69
2022/11/08 11:36:19;;;;;;;2.80;2.40;;;18.70;86.60;20.30;96891.00;;;;5087597;28;20203;-69
2022/11/08 11:39:19;;;;;;;4.23;2.50;;;18.70;86.70;20.80;96883.00;;;;5088902;28;20302;-69
2022/11/08 11:42:15;;;;;;;2.13;1.93;;;19.00;85.90;21.40;96890.00;;;;5071091;28;20206;-68
2022/11/08 11:45:24;;;;;;;3.07;2.20;;;19.30;84.90;21.10;96877.00;;;;5069385;28;20211;-69
2022/11/08 11:48:18;;;;;;;2.40;1.87;;;19.30;83.50;21.70;96892.00;;;;5083576;28;20250;-69
2022/11/08 11:51:10;;;;;;;2.93;2.37;;;19.80;82.40;21.60;96881.00;;;;5068416;28;20200;-69
2022/11/08 11:54:02;;;;;;;3.40;1.90;;;19.90;81.40;22.30;96881.00;;;;5068687;28;20212;-69
2022/11/08 11:56:57;;;;;;;3.23;2.97;;;20.20;80.10;22.70;96888.00;;;;5088016;28;20277;-69
2022/11/08 12:00:11;;;;;;;3.20;2.40;;;20.40;80.50;22.90;96890.00;;;;5087033;28;20263;-69
2022/11/08 12:03:24;;;;;;;1.87;1.57;;;20.70;76.30;22.80;96886.00;;;;5088637;28;20227;-69
2022/11/08 12:06:27;;;;;;;3.07;2.13;;;20.80;76.80;23.00;96878.00;;;;5080908;28;20711;-69
2022/11/08 12:09:37;;;;;;;2.83;2.20;;;20.90;77.90;23.20;96878.00;;;;5079606;28;20227;-69
2022/11/08 12:12:43;;;;;;;1.90;1.80;;;21.10;76.40;23.10;96870.00;;;;5078212;28;20207;-69
2022/11/08 12:15:42;;;;;;;4.23;2.17;;;21.20;73.90;23.90;96869.00;;;;5073591;28;20694;-69
2022/11/08 12:18:45;;;;;;;1.63;1.53;;;21.50;73.90;25.20;96870.00;;;;5071687;28;20214;-69
2022/11/08 12:21:44;;;;;;;1.90;1.70;;;22.10;72.90;25.30;96870.00;;;;5078147;28;20618;-69
2022/11/08 12:24:46;;;;;;;3.53;1.77;;;22.70;68.60;23.10;96891.00;;;;5091195;28;20231;-69
2022/11/08 12:27:44;;;;;;;3.33;2.20;;;23.10;66.50;23.00;96888.00;;;;5088691;28;20209;-69
2022/11/08 12:30:43;;;;;;;3.70;2.27;;;22.70;65.00;23.40;96883.00;;;;5071768;28;20206;-69
2022/11/08 12:33:44;;;;;;;2.53;2.03;;;22.40;66.60;23.90;96873.00;;;;5074131;28;20277;-69
2022/11/08 12:36:40;;;;;;;2.60;1.90;;;22.20;67.30;24.50;96871.00;;;;5082393;28;20201;-69
2022/11/08 12:39:39;;;;;;;3.47;2.03;;;22.20;67.90;25.40;96867.00;;;;5091456;28;20226;-69
2022/11/08 12:42:49;;;;;;;2.63;2.27;;;22.50;67.30;24.40;96884.00;;;;5077974;28;20317;-69
2022/11/08 12:45:56;;;;;;;2.30;1.97;;;22.60;66.00;24.10;96882.00;;;;5091269;28;20635;-69
2022/11/08 12:49:07;;;;;;;3.97;2.23;;;22.40;65.90;24.10;96882.00;;;;5090761;28;20588;-69
2022/11/08 12:52:15;;;;;;;4.23;2.23;;;22.40;65.90;23.90;96889.00;;;;5091350;28;20233;-69
2022/11/08 12:55:10;;;;;;;4.73;2.47;;;22.30;66.20;23.80;96877.00;;;;5087976;28;20212;-69
2022/11/08 12:58:02;;;;;;;4.97;2.40;;;22.30;67.10;23.70;96897.00;;;;5081092;28;20200;-69
2022/11/08 13:00:58;;;;;;;1.80;1.70;;;22.20;66.90;21.80;96888.00;;;;5086865;28;20187;-69
2022/11/08 13:04:19;;;;;;;2.40;2.20;;;21.90;67.50;21.20;96888.00;;;;5079396;28;20235;-69
2022/11/08 13:07:22;;;;;;;1.60;1.40;;;21.20;69.80;20.10;96868.00;;;;5086302;28;20879;-68
2022/11/08 13:10:30;;;;;;;4.13;2.33;;;20.40;72.80;21.40;96852.00;;;;5086395;28;20202;-69
2022/11/08 13:13:34;;;;;;;3.83;2.63;;;19.90;75.00;20.90;96878.00;;;;5082821;28;20218;-70
2022/11/08 13:16:27;;;;;;;4.40;2.50;;;20.10;74.70;20.30;96879.00;;;;5085689;28;20208;-69
2022/11/08 13:19:29;;;;;;;3.90;2.50;;;19.80;75.30;20.10;96869.00;;;;5089327;28;20219;-69
2022/11/08 13:22:44;;;;;;;2.53;1.90;;;19.50;76.10;21.20;96858.00;;;;5082152;28;20268;-68